Price, Maryland
Current Conditions -  °F | °C
As of 3:29 AM on Friday 24 Oct 2014 (Local Time) from KESN Reporting Station
Broken Clouds Broken Clouds  
Wind Chill: 57°   Ceiling: 5000
Heat Index: 57°   Visibility: 10mi
Dew Point: 47°   Wind: 13mph
Humidity: 68%   Direction: 320°NW
Pressure: 29.9"   Gusts: 16mph
Location:  39.1°N, 75.96°W
Report Text: KESN 240729Z AUTO 32011G14KT 10SM BKN050 14/08 A2990 RMK AO2 T01390081
Loading
Personal Weather Stations






























Interactive Weather Map
Tropical Storm Tracking
New forecast layout! Learn more

10-Day Weather Forecast

Advertisements
Track Severe Weather on mobile